Terminal Aerodrome Forecast
Issued by NWS

Home | Current Version | Previous Version | Text Only | Print | Product List | Glossary On
Versions: 1 2 3 4 5 6 7 8 9 10 11 12 13 14 15 16 17 18 19 20
000
FTUS43 KDLH 250900 AAB
TAFBRD
TAF AMD
KBRD 250925Z 2509/2606 18007KT P6SM SCT035 BKN070
      TEMPO 2509/2512 VRB10G25KT 2SM TSRA BR BKN015CB
     FM251500 20007KT P6SM VCSH SCT050 BKN100
     FM260000 VRB03KT P6SM SCT015=

USA.gov is the U.S. government's official web portal to all federal, state and local government web resources and services.